sensor_id;sensor_type;location;lat;lon;timestamp;P1;durP1;ratioP1;P2;durP2;ratioP2
14268;SDS011;7218;51.480;7.006;2024-03-08T00:00:56;20.05;;;15.02;;
14268;SDS011;7218;51.480;7.006;2024-03-08T00:03:23;19.65;;;14.38;;
14268;SDS011;7218;51.480;7.006;2024-03-08T00:05:49;18.27;;;14.07;;
14268;SDS011;7218;51.480;7.006;2024-03-08T00:08:17;20.30;;;13.80;;
14268;SDS011;7218;51.480;7.006;2024-03-08T00:10:44;19.70;;;14.55;;
14268;SDS011;7218;51.480;7.006;2024-03-08T00:13:10;18.65;;;13.63;;
14268;SDS011;7218;51.480;7.006;2024-03-08T00:15:37;18.60;;;14.05;;
14268;SDS011;7218;51.480;7.006;2024-03-08T00:18:03;19.08;;;14.70;;
14268;SDS011;7218;51.480;7.006;2024-03-08T00:20:30;16.92;;;14.20;;
14268;SDS011;7218;51.480;7.006;2024-03-08T00:22:57;19.25;;;14.68;;
14268;SDS011;7218;51.480;7.006;2024-03-08T00:25:25;20.58;;;14.40;;
14268;SDS011;7218;51.480;7.006;2024-03-08T00:27:52;19.13;;;14.05;;
14268;SDS011;7218;51.480;7.006;2024-03-08T00:30:20;18.50;;;14.10;;
14268;SDS011;7218;51.480;7.006;2024-03-08T00:32:47;20.92;;;14.95;;
14268;SDS011;7218;51.480;7.006;2024-03-08T00:35:14;19.15;;;14.05;;
14268;SDS011;7218;51.480;7.006;2024-03-08T00:37:41;17.67;;;14.10;;
14268;SDS011;7218;51.480;7.006;2024-03-08T00:40:08;20.75;;;15.02;;
14268;SDS011;7218;51.480;7.006;2024-03-08T00:42:36;18.20;;;14.13;;
14268;SDS011;7218;51.480;7.006;2024-03-08T00:45:03;19.88;;;15.20;;
14268;SDS011;7218;51.480;7.006;2024-03-08T00:47:30;18.98;;;14.40;;
14268;SDS011;7218;51.480;7.006;2024-03-08T00:49:57;21.23;;;14.82;;
14268;SDS011;7218;51.480;7.006;2024-03-08T00:52:24;19.77;;;14.90;;
14268;SDS011;7218;51.480;7.006;2024-03-08T00:54:51;18.17;;;14.60;;
14268;SDS011;7218;51.480;7.006;2024-03-08T00:57:18;19.52;;;14.65;;
14268;SDS011;7218;51.480;7.006;2024-03-08T00:59:45;18.48;;;15.00;;
14268;SDS011;7218;51.480;7.006;2024-03-08T01:02:12;20.45;;;15.13;;
14268;SDS011;7218;51.480;7.006;2024-03-08T01:04:39;21.77;;;15.07;;
14268;SDS011;7218;51.480;7.006;2024-03-08T01:07:05;20.85;;;14.98;;
14268;SDS011;7218;51.480;7.006;2024-03-08T01:09:32;20.85;;;15.63;;
14268;SDS011;7218;51.480;7.006;2024-03-08T01:11:58;19.17;;;14.85;;
14268;SDS011;7218;51.480;7.006;2024-03-08T01:14:26;18.80;;;14.93;;
14268;SDS011;7218;51.480;7.006;2024-03-08T01:16:55;19.55;;;15.48;;
14268;SDS011;7218;51.480;7.006;2024-03-08T01:19:21;20.17;;;15.20;;
14268;SDS011;7218;51.480;7.006;2024-03-08T01:21:48;18.65;;;15.27;;
14268;SDS011;7218;51.480;7.006;2024-03-08T01:24:15;21.15;;;15.32;;
14268;SDS011;7218;51.480;7.006;2024-03-08T01:26:41;17.23;;;14.40;;
14268;SDS011;7218;51.480;7.006;2024-03-08T01:29:08;18.35;;;14.80;;
14268;SDS011;7218;51.480;7.006;2024-03-08T01:31:34;23.17;;;16.02;;
14268;SDS011;7218;51.480;7.006;2024-03-08T01:34:02;22.13;;;16.08;;
14268;SDS011;7218;51.480;7.006;2024-03-08T01:36:29;20.58;;;16.20;;
14268;SDS011;7218;51.480;7.006;2024-03-08T01:38:56;19.85;;;15.77;;
14268;SDS011;7218;51.480;7.006;2024-03-08T01:41:22;23.60;;;16.40;;
14268;SDS011;7218;51.480;7.006;2024-03-08T01:43:49;20.17;;;15.73;;
14268;SDS011;7218;51.480;7.006;2024-03-08T01:46:16;21.85;;;16.98;;
14268;SDS011;7218;51.480;7.006;2024-03-08T01:48:47;21.38;;;16.13;;
14268;SDS011;7218;51.480;7.006;2024-03-08T01:51:15;21.30;;;16.73;;
14268;SDS011;7218;51.480;7.006;2024-03-08T01:53:41;19.90;;;15.55;;
14268;SDS011;7218;51.480;7.006;2024-03-08T01:56:11;20.77;;;16.42;;
14268;SDS011;7218;51.480;7.006;2024-03-08T01:58:38;20.17;;;15.98;;
14268;SDS011;7218;51.480;7.006;2024-03-08T02:01:07;19.92;;;15.93;;
14268;SDS011;7218;51.480;7.006;2024-03-08T02:03:34;19.52;;;15.80;;
14268;SDS011;7218;51.480;7.006;2024-03-08T02:06:00;21.38;;;16.55;;
14268;SDS011;7218;51.480;7.006;2024-03-08T02:08:28;22.50;;;16.73;;
14268;SDS011;7218;51.480;7.006;2024-03-08T02:10:54;23.80;;;16.85;;
14268;SDS011;7218;51.480;7.006;2024-03-08T02:13:21;22.08;;;16.08;;
14268;SDS011;7218;51.480;7.006;2024-03-08T02:15:51;21.48;;;15.80;;
14268;SDS011;7218;51.480;7.006;2024-03-08T02:18:18;21.38;;;15.75;;
14268;SDS011;7218;51.480;7.006;2024-03-08T02:20:46;21.92;;;16.60;;
14268;SDS011;7218;51.480;7.006;2024-03-08T02:23:13;21.83;;;16.92;;
14268;SDS011;7218;51.480;7.006;2024-03-08T02:25:40;21.70;;;16.15;;
14268;SDS011;7218;51.480;7.006;2024-03-08T02:28:08;21.83;;;16.85;;
14268;SDS011;7218;51.480;7.006;2024-03-08T02:30:36;22.75;;;16.77;;
14268;SDS011;7218;51.480;7.006;2024-03-08T02:33:03;23.42;;;17.75;;
14268;SDS011;7218;51.480;7.006;2024-03-08T02:35:30;21.23;;;16.98;;
14268;SDS011;7218;51.480;7.006;2024-03-08T02:37:58;20.13;;;16.05;;
14268;SDS011;7218;51.480;7.006;2024-03-08T02:40:24;23.90;;;16.35;;
14268;SDS011;7218;51.480;7.006;2024-03-08T02:42:50;19.92;;;16.38;;
14268;SDS011;7218;51.480;7.006;2024-03-08T02:45:17;21.30;;;16.85;;
14268;SDS011;7218;51.480;7.006;2024-03-08T02:47:44;20.63;;;16.33;;
14268;SDS011;7218;51.480;7.006;2024-03-08T02:50:10;21.65;;;16.85;;
14268;SDS011;7218;51.480;7.006;2024-03-08T02:52:41;23.48;;;16.35;;
14268;SDS011;7218;51.480;7.006;2024-03-08T02:55:09;22.98;;;16.50;;
14268;SDS011;7218;51.480;7.006;2024-03-08T02:57:36;21.88;;;17.55;;
14268;SDS011;7218;51.480;7.006;2024-03-08T03:00:02;23.45;;;16.55;;
14268;SDS011;7218;51.480;7.006;2024-03-08T03:02:29;22.58;;;17.45;;
14268;SDS011;7218;51.480;7.006;2024-03-08T03:04:56;22.40;;;17.27;;
14268;SDS011;7218;51.480;7.006;2024-03-08T03:07:23;19.52;;;16.50;;
14268;SDS011;7218;51.480;7.006;2024-03-08T03:09:52;19.65;;;16.55;;
14268;SDS011;7218;51.480;7.006;2024-03-08T03:12:20;23.08;;;16.33;;
14268;SDS011;7218;51.480;7.006;2024-03-08T03:14:46;21.42;;;16.33;;
14268;SDS011;7218;51.480;7.006;2024-03-08T03:17:13;23.52;;;17.75;;
14268;SDS011;7218;51.480;7.006;2024-03-08T03:19:41;21.60;;;17.48;;
14268;SDS011;7218;51.480;7.006;2024-03-08T03:22:08;23.25;;;16.83;;
14268;SDS011;7218;51.480;7.006;2024-03-08T03:24:35;23.10;;;17.00;;
14268;SDS011;7218;51.480;7.006;2024-03-08T03:27:03;22.27;;;16.70;;
14268;SDS011;7218;51.480;7.006;2024-03-08T03:29:37;22.75;;;17.42;;
14268;SDS011;7218;51.480;7.006;2024-03-08T03:32:03;26.33;;;17.52;;
14268;SDS011;7218;51.480;7.006;2024-03-08T03:34:30;21.67;;;16.35;;
14268;SDS011;7218;51.480;7.006;2024-03-08T03:36:57;25.92;;;18.05;;
14268;SDS011;7218;51.480;7.006;2024-03-08T03:39:23;23.10;;;18.00;;
14268;SDS011;7218;51.480;7.006;2024-03-08T03:41:50;21.98;;;17.60;;
14268;SDS011;7218;51.480;7.006;2024-03-08T03:44:17;24.67;;;16.85;;
14268;SDS011;7218;51.480;7.006;2024-03-08T03:46:45;26.80;;;17.73;;
14268;SDS011;7218;51.480;7.006;2024-03-08T03:49:11;24.33;;;17.80;;
14268;SDS011;7218;51.480;7.006;2024-03-08T03:51:38;25.45;;;17.13;;
14268;SDS011;7218;51.480;7.006;2024-03-08T03:54:04;24.10;;;18.08;;
14268;SDS011;7218;51.480;7.006;2024-03-08T03:56:31;22.83;;;18.17;;
14268;SDS011;7218;51.480;7.006;2024-03-08T03:58:57;23.13;;;17.85;;
14268;SDS011;7218;51.480;7.006;2024-03-08T04:01:24;23.45;;;18.13;;
14268;SDS011;7218;51.480;7.006;2024-03-08T04:03:51;22.83;;;17.23;;
14268;SDS011;7218;51.480;7.006;2024-03-08T04:06:18;23.73;;;18.15;;
14268;SDS011;7218;51.480;7.006;2024-03-08T04:08:44;24.52;;;18.35;;
14268;SDS011;7218;51.480;7.006;2024-03-08T04:11:11;23.95;;;17.80;;
14268;SDS011;7218;51.480;7.006;2024-03-08T04:13:37;24.20;;;17.33;;
14268;SDS011;7218;51.480;7.006;2024-03-08T04:16:04;25.95;;;18.88;;
14268;SDS011;7218;51.480;7.006;2024-03-08T04:18:33;24.40;;;17.55;;
14268;SDS011;7218;51.480;7.006;2024-03-08T04:21:02;23.38;;;18.00;;
14268;SDS011;7218;51.480;7.006;2024-03-08T04:23:31;25.60;;;17.85;;
14268;SDS011;7218;51.480;7.006;2024-03-08T04:26:00;24.98;;;17.73;;
14268;SDS011;7218;51.480;7.006;2024-03-08T04:28:27;26.40;;;17.90;;
14268;SDS011;7218;51.480;7.006;2024-03-08T04:30:53;27.77;;;17.98;;
14268;SDS011;7218;51.480;7.006;2024-03-08T04:33:20;26.55;;;17.90;;
14268;SDS011;7218;51.480;7.006;2024-03-08T04:35:48;26.10;;;19.00;;
14268;SDS011;7218;51.480;7.006;2024-03-08T04:38:16;24.52;;;18.05;;
14268;SDS011;7218;51.480;7.006;2024-03-08T04:40:43;27.08;;;18.60;;
14268;SDS011;7218;51.480;7.006;2024-03-08T04:43:09;24.38;;;18.67;;
14268;SDS011;7218;51.480;7.006;2024-03-08T04:45:36;23.58;;;18.27;;
14268;SDS011;7218;51.480;7.006;2024-03-08T04:48:03;29.05;;;19.08;;
14268;SDS011;7218;51.480;7.006;2024-03-08T04:50:30;26.27;;;18.60;;
14268;SDS011;7218;51.480;7.006;2024-03-08T04:52:56;24.10;;;17.90;;
14268;SDS011;7218;51.480;7.006;2024-03-08T04:55:24;30.17;;;20.42;;
14268;SDS011;7218;51.480;7.006;2024-03-08T04:57:50;27.98;;;18.58;;
14268;SDS011;7218;51.480;7.006;2024-03-08T05:00:18;23.92;;;18.63;;
14268;SDS011;7218;51.480;7.006;2024-03-08T05:02:45;26.88;;;19.10;;
14268;SDS011;7218;51.480;7.006;2024-03-08T05:05:12;28.13;;;19.08;;
14268;SDS011;7218;51.480;7.006;2024-03-08T05:07:38;30.02;;;18.05;;
14268;SDS011;7218;51.480;7.006;2024-03-08T05:10:05;24.88;;;18.52;;
14268;SDS011;7218;51.480;7.006;2024-03-08T05:12:35;26.08;;;18.30;;
14268;SDS011;7218;51.480;7.006;2024-03-08T05:15:03;25.30;;;18.67;;
14268;SDS011;7218;51.480;7.006;2024-03-08T05:17:30;25.38;;;19.05;;
14268;SDS011;7218;51.480;7.006;2024-03-08T05:19:56;24.55;;;18.83;;
14268;SDS011;7218;51.480;7.006;2024-03-08T05:22:23;26.88;;;19.30;;
14268;SDS011;7218;51.480;7.006;2024-03-08T05:24:51;25.90;;;18.75;;
14268;SDS011;7218;51.480;7.006;2024-03-08T05:27:17;24.83;;;19.08;;
14268;SDS011;7218;51.480;7.006;2024-03-08T05:29:45;25.98;;;19.35;;
14268;SDS011;7218;51.480;7.006;2024-03-08T05:32:12;26.52;;;18.73;;
14268;SDS011;7218;51.480;7.006;2024-03-08T05:34:39;28.67;;;19.35;;
14268;SDS011;7218;51.480;7.006;2024-03-08T05:37:06;24.52;;;18.77;;
14268;SDS011;7218;51.480;7.006;2024-03-08T05:39:33;25.50;;;19.33;;
14268;SDS011;7218;51.480;7.006;2024-03-08T05:41:59;25.25;;;18.50;;
14268;SDS011;7218;51.480;7.006;2024-03-08T05:44:26;26.40;;;19.33;;
14268;SDS011;7218;51.480;7.006;2024-03-08T05:46:55;27.75;;;20.10;;
14268;SDS011;7218;51.480;7.006;2024-03-08T05:49:21;33.08;;;22.98;;
14268;SDS011;7218;51.480;7.006;2024-03-08T05:51:47;33.30;;;23.90;;
14268;SDS011;7218;51.480;7.006;2024-03-08T05:54:14;37.35;;;24.20;;
14268;SDS011;7218;51.480;7.006;2024-03-08T05:56:41;33.00;;;23.27;;
14268;SDS011;7218;51.480;7.006;2024-03-08T05:59:09;31.95;;;21.95;;
14268;SDS011;7218;51.480;7.006;2024-03-08T06:01:35;30.98;;;20.95;;
14268;SDS011;7218;51.480;7.006;2024-03-08T06:04:04;31.02;;;21.85;;
14268;SDS011;7218;51.480;7.006;2024-03-08T06:06:31;32.00;;;20.90;;
14268;SDS011;7218;51.480;7.006;2024-03-08T06:08:57;29.23;;;21.15;;
14268;SDS011;7218;51.480;7.006;2024-03-08T06:11:24;31.20;;;20.58;;
14268;SDS011;7218;51.480;7.006;2024-03-08T06:13:53;29.23;;;21.00;;
14268;SDS011;7218;51.480;7.006;2024-03-08T06:16:24;29.25;;;20.10;;
14268;SDS011;7218;51.480;7.006;2024-03-08T06:18:54;28.42;;;20.73;;
14268;SDS011;7218;51.480;7.006;2024-03-08T06:21:22;28.67;;;20.52;;
14268;SDS011;7218;51.480;7.006;2024-03-08T06:23:51;28.70;;;20.42;;
14268;SDS011;7218;51.480;7.006;2024-03-08T06:26:19;30.23;;;21.35;;
14268;SDS011;7218;51.480;7.006;2024-03-08T06:28:46;26.25;;;19.67;;
14268;SDS011;7218;51.480;7.006;2024-03-08T06:31:13;29.42;;;20.38;;
14268;SDS011;7218;51.480;7.006;2024-03-08T06:33:40;25.95;;;19.85;;
14268;SDS011;7218;51.480;7.006;2024-03-08T06:36:07;28.33;;;20.27;;
14268;SDS011;7218;51.480;7.006;2024-03-08T06:38:36;29.55;;;20.40;;
14268;SDS011;7218;51.480;7.006;2024-03-08T06:41:07;30.40;;;20.50;;
14268;SDS011;7218;51.480;7.006;2024-03-08T06:43:33;29.00;;;21.15;;
14268;SDS011;7218;51.480;7.006;2024-03-08T06:46:00;29.35;;;21.23;;
14268;SDS011;7218;51.480;7.006;2024-03-08T06:48:28;31.45;;;21.58;;
14268;SDS011;7218;51.480;7.006;2024-03-08T06:50:55;30.38;;;21.13;;
14268;SDS011;7218;51.480;7.006;2024-03-08T06:53:22;29.38;;;20.85;;
14268;SDS011;7218;51.480;7.006;2024-03-08T06:55:50;30.20;;;21.23;;
14268;SDS011;7218;51.480;7.006;2024-03-08T06:58:17;30.65;;;20.92;;
14268;SDS011;7218;51.480;7.006;2024-03-08T07:00:44;27.48;;;20.45;;
14268;SDS011;7218;51.480;7.006;2024-03-08T07:03:10;28.48;;;20.98;;
14268;SDS011;7218;51.480;7.006;2024-03-08T07:05:42;29.23;;;20.30;;
14268;SDS011;7218;51.480;7.006;2024-03-08T07:08:08;30.02;;;21.65;;
14268;SDS011;7218;51.480;7.006;2024-03-08T07:10:35;28.10;;;20.75;;
14268;SDS011;7218;51.480;7.006;2024-03-08T07:13:04;30.67;;;21.40;;
14268;SDS011;7218;51.480;7.006;2024-03-08T07:15:30;28.30;;;20.98;;
14268;SDS011;7218;51.480;7.006;2024-03-08T07:17:57;29.20;;;20.10;;
14268;SDS011;7218;51.480;7.006;2024-03-08T07:20:25;27.40;;;20.45;;
14268;SDS011;7218;51.480;7.006;2024-03-08T07:22:51;28.65;;;21.05;;
14268;SDS011;7218;51.480;7.006;2024-03-08T07:25:18;31.98;;;20.83;;
14268;SDS011;7218;51.480;7.006;2024-03-08T07:27:48;29.70;;;20.98;;
14268;SDS011;7218;51.480;7.006;2024-03-08T07:30:17;29.85;;;20.70;;
14268;SDS011;7218;51.480;7.006;2024-03-08T07:32:58;28.85;;;21.25;;
14268;SDS011;7218;51.480;7.006;2024-03-08T07:35:24;28.02;;;20.42;;
14268;SDS011;7218;51.480;7.006;2024-03-08T07:37:52;28.08;;;21.17;;
14268;SDS011;7218;51.480;7.006;2024-03-08T07:40:19;29.40;;;20.63;;
14268;SDS011;7218;51.480;7.006;2024-03-08T07:42:46;28.67;;;21.08;;
14268;SDS011;7218;51.480;7.006;2024-03-08T07:45:12;28.33;;;20.83;;
14268;SDS011;7218;51.480;7.006;2024-03-08T07:47:42;28.40;;;20.23;;
14268;SDS011;7218;51.480;7.006;2024-03-08T07:50:09;29.80;;;20.50;;
14268;SDS011;7218;51.480;7.006;2024-03-08T07:52:36;28.90;;;20.23;;
14268;SDS011;7218;51.480;7.006;2024-03-08T07:55:02;28.98;;;21.65;;
14268;SDS011;7218;51.480;7.006;2024-03-08T07:57:30;28.23;;;20.05;;
14268;SDS011;7218;51.480;7.006;2024-03-08T07:59:57;29.45;;;20.23;;
14268;SDS011;7218;51.480;7.006;2024-03-08T08:02:23;27.75;;;20.25;;
14268;SDS011;7218;51.480;7.006;2024-03-08T08:04:51;27.25;;;20.48;;
14268;SDS011;7218;51.480;7.006;2024-03-08T08:07:18;27.98;;;20.35;;
14268;SDS011;7218;51.480;7.006;2024-03-08T08:09:44;28.77;;;21.02;;
14268;SDS011;7218;51.480;7.006;2024-03-08T08:12:11;28.15;;;20.15;;
14268;SDS011;7218;51.480;7.006;2024-03-08T08:14:38;31.92;;;20.95;;
14268;SDS011;7218;51.480;7.006;2024-03-08T08:17:04;29.33;;;20.52;;
14268;SDS011;7218;51.480;7.006;2024-03-08T08:19:33;26.48;;;19.60;;
14268;SDS011;7218;51.480;7.006;2024-03-08T08:22:01;25.23;;;19.20;;
14268;SDS011;7218;51.480;7.006;2024-03-08T08:24:28;26.63;;;19.60;;
14268;SDS011;7218;51.480;7.006;2024-03-08T08:26:54;27.67;;;19.13;;
14268;SDS011;7218;51.480;7.006;2024-03-08T08:29:21;26.02;;;19.80;;
14268;SDS011;7218;51.480;7.006;2024-03-08T08:31:48;27.65;;;19.70;;
14268;SDS011;7218;51.480;7.006;2024-03-08T08:34:15;27.48;;;19.95;;
14268;SDS011;7218;51.480;7.006;2024-03-08T08:36:42;27.40;;;19.55;;
14268;SDS011;7218;51.480;7.006;2024-03-08T08:39:09;28.67;;;19.00;;
14268;SDS011;7218;51.480;7.006;2024-03-08T08:41:38;25.65;;;19.05;;
14268;SDS011;7218;51.480;7.006;2024-03-08T08:44:06;25.67;;;18.48;;
14268;SDS011;7218;51.480;7.006;2024-03-08T08:46:35;25.67;;;18.45;;
14268;SDS011;7218;51.480;7.006;2024-03-08T08:49:02;24.30;;;17.67;;
14268;SDS011;7218;51.480;7.006;2024-03-08T08:51:29;23.58;;;17.85;;
14268;SDS011;7218;51.480;7.006;2024-03-08T08:53:56;24.90;;;18.23;;
14268;SDS011;7218;51.480;7.006;2024-03-08T08:56:23;25.65;;;17.88;;
14268;SDS011;7218;51.480;7.006;2024-03-08T08:58:50;22.95;;;16.23;;
14268;SDS011;7218;51.480;7.006;2024-03-08T09:01:18;21.35;;;16.67;;
14268;SDS011;7218;51.480;7.006;2024-03-08T09:03:44;23.42;;;17.20;;
14268;SDS011;7218;51.480;7.006;2024-03-08T09:06:12;22.70;;;16.92;;
14268;SDS011;7218;51.480;7.006;2024-03-08T09:08:38;22.73;;;17.02;;
14268;SDS011;7218;51.480;7.006;2024-03-08T09:11:05;23.85;;;17.20;;
14268;SDS011;7218;51.480;7.006;2024-03-08T09:13:33;24.30;;;17.60;;
14268;SDS011;7218;51.480;7.006;2024-03-08T09:15:59;22.88;;;16.73;;
14268;SDS011;7218;51.480;7.006;2024-03-08T09:18:26;22.75;;;16.95;;
14268;SDS011;7218;51.480;7.006;2024-03-08T09:20:53;19.92;;;16.00;;
14268;SDS011;7218;51.480;7.006;2024-03-08T09:23:19;22.67;;;16.80;;
14268;SDS011;7218;51.480;7.006;2024-03-08T09:25:46;22.55;;;16.38;;
14268;SDS011;7218;51.480;7.006;2024-03-08T09:28:12;21.05;;;16.67;;
14268;SDS011;7218;51.480;7.006;2024-03-08T09:30:40;20.92;;;16.40;;
14268;SDS011;7218;51.480;7.006;2024-03-08T09:33:08;22.52;;;16.65;;
14268;SDS011;7218;51.480;7.006;2024-03-08T09:35:34;22.60;;;17.35;;
14268;SDS011;7218;51.480;7.006;2024-03-08T09:38:01;21.17;;;16.70;;
14268;SDS011;7218;51.480;7.006;2024-03-08T09:40:28;20.58;;;16.63;;
14268;SDS011;7218;51.480;7.006;2024-03-08T09:42:55;23.88;;;16.75;;
14268;SDS011;7218;51.480;7.006;2024-03-08T09:45:22;22.08;;;17.00;;
14268;SDS011;7218;51.480;7.006;2024-03-08T09:47:52;20.45;;;16.17;;
14268;SDS011;7218;51.480;7.006;2024-03-08T09:50:19;20.50;;;15.82;;
14268;SDS011;7218;51.480;7.006;2024-03-08T09:52:47;19.40;;;15.73;;
14268;SDS011;7218;51.480;7.006;2024-03-08T09:55:15;20.35;;;15.80;;
14268;SDS011;7218;51.480;7.006;2024-03-08T09:57:47;20.27;;;16.05;;
14268;SDS011;7218;51.480;7.006;2024-03-08T10:00:40;21.13;;;15.00;;
14268;SDS011;7218;51.480;7.006;2024-03-08T10:03:08;28.15;;;17.38;;
14268;SDS011;7218;51.480;7.006;2024-03-08T10:05:35;20.42;;;16.25;;
14268;SDS011;7218;51.480;7.006;2024-03-08T10:08:02;20.08;;;15.57;;
14268;SDS011;7218;51.480;7.006;2024-03-08T10:10:30;20.00;;;15.82;;
14268;SDS011;7218;51.480;7.006;2024-03-08T10:12:56;22.85;;;16.83;;
14268;SDS011;7218;51.480;7.006;2024-03-08T10:15:26;20.77;;;16.00;;
14268;SDS011;7218;51.480;7.006;2024-03-08T10:17:54;22.48;;;16.10;;
14268;SDS011;7218;51.480;7.006;2024-03-08T10:20:22;21.90;;;16.20;;
14268;SDS011;7218;51.480;7.006;2024-03-08T10:22:49;21.80;;;16.25;;
14268;SDS011;7218;51.480;7.006;2024-03-08T10:25:16;19.92;;;15.93;;
14268;SDS011;7218;51.480;7.006;2024-03-08T10:27:43;20.83;;;15.73;;
14268;SDS011;7218;51.480;7.006;2024-03-08T10:30:10;21.75;;;17.13;;
14268;SDS011;7218;51.480;7.006;2024-03-08T10:32:40;19.95;;;15.60;;
14268;SDS011;7218;51.480;7.006;2024-03-08T10:35:07;21.27;;;17.05;;
14268;SDS011;7218;51.480;7.006;2024-03-08T10:37:36;24.52;;;17.10;;
14268;SDS011;7218;51.480;7.006;2024-03-08T10:40:13;21.48;;;15.25;;
14268;SDS011;7218;51.480;7.006;2024-03-08T10:42:46;19.45;;;15.75;;
14268;SDS011;7218;51.480;7.006;2024-03-08T10:45:19;18.95;;;15.50;;
14268;SDS011;7218;51.480;7.006;2024-03-08T10:47:54;19.00;;;15.85;;
14268;SDS011;7218;51.480;7.006;2024-03-08T10:50:30;19.75;;;15.93;;
14268;SDS011;7218;51.480;7.006;2024-03-08T10:53:00;19.52;;;15.25;;
14268;SDS011;7218;51.480;7.006;2024-03-08T10:55:29;17.63;;;15.20;;
14268;SDS011;7218;51.480;7.006;2024-03-08T10:57:59;19.98;;;15.98;;
14268;SDS011;7218;51.480;7.006;2024-03-08T11:00:26;20.80;;;15.90;;
14268;SDS011;7218;51.480;7.006;2024-03-08T11:02:53;20.77;;;16.85;;
14268;SDS011;7218;51.480;7.006;2024-03-08T11:05:31;17.92;;;16.02;;
14268;SDS011;7218;51.480;7.006;2024-03-08T11:08:02;18.38;;;15.70;;
14268;SDS011;7218;51.480;7.006;2024-03-08T11:10:29;19.38;;;16.70;;
14268;SDS011;7218;51.480;7.006;2024-03-08T11:12:56;18.25;;;15.73;;
14268;SDS011;7218;51.480;7.006;2024-03-08T11:15:23;20.35;;;16.27;;
14268;SDS011;7218;51.480;7.006;2024-03-08T11:17:50;21.58;;;16.33;;
14268;SDS011;7218;51.480;7.006;2024-03-08T11:20:20;19.15;;;15.50;;
14268;SDS011;7218;51.480;7.006;2024-03-08T11:22:50;20.95;;;16.85;;
14268;SDS011;7218;51.480;7.006;2024-03-08T11:25:33;19.42;;;16.17;;
14268;SDS011;7218;51.480;7.006;2024-03-08T11:28:07;19.17;;;15.50;;
14268;SDS011;7218;51.480;7.006;2024-03-08T11:30:41;18.35;;;15.95;;
14268;SDS011;7218;51.480;7.006;2024-03-08T11:33:10;17.42;;;15.52;;
14268;SDS011;7218;51.480;7.006;2024-03-08T11:35:38;19.27;;;15.77;;
14268;SDS011;7218;51.480;7.006;2024-03-08T11:38:05;18.27;;;15.68;;
14268;SDS011;7218;51.480;7.006;2024-03-08T11:40:34;18.17;;;15.55;;
14268;SDS011;7218;51.480;7.006;2024-03-08T11:43:02;18.45;;;14.90;;
14268;SDS011;7218;51.480;7.006;2024-03-08T11:45:32;17.90;;;15.90;;
14268;SDS011;7218;51.480;7.006;2024-03-08T11:48:01;19.13;;;15.23;;
14268;SDS011;7218;51.480;7.006;2024-03-08T11:50:28;16.90;;;15.10;;
14268;SDS011;7218;51.480;7.006;2024-03-08T11:52:59;17.75;;;15.18;;
14268;SDS011;7218;51.480;7.006;2024-03-08T11:55:26;17.70;;;15.73;;
14268;SDS011;7218;51.480;7.006;2024-03-08T11:58:00;17.30;;;15.40;;
14268;SDS011;7218;51.480;7.006;2024-03-08T12:00:30;17.02;;;15.20;;
14268;SDS011;7218;51.480;7.006;2024-03-08T12:03:03;17.48;;;15.57;;
14268;SDS011;7218;51.480;7.006;2024-03-08T12:05:31;18.48;;;15.35;;
14268;SDS011;7218;51.480;7.006;2024-03-08T12:07:58;17.25;;;14.02;;
14268;SDS011;7218;51.480;7.006;2024-03-08T12:10:25;17.35;;;14.85;;
14268;SDS011;7218;51.480;7.006;2024-03-08T12:12:53;16.17;;;14.48;;
14268;SDS011;7218;51.480;7.006;2024-03-08T12:15:23;16.25;;;13.63;;
14268;SDS011;7218;51.480;7.006;2024-03-08T12:17:50;17.25;;;14.90;;
14268;SDS011;7218;51.480;7.006;2024-03-08T12:20:17;15.38;;;13.75;;
14268;SDS011;7218;51.480;7.006;2024-03-08T12:22:46;15.80;;;14.18;;
14268;SDS011;7218;51.480;7.006;2024-03-08T12:25:14;15.60;;;13.48;;
14268;SDS011;7218;51.480;7.006;2024-03-08T12:27:41;15.63;;;13.18;;
14268;SDS011;7218;51.480;7.006;2024-03-08T12:30:16;15.85;;;13.55;;
14268;SDS011;7218;51.480;7.006;2024-03-08T12:32:47;16.27;;;14.27;;
14268;SDS011;7218;51.480;7.006;2024-03-08T12:35:17;15.38;;;13.70;;
14268;SDS011;7218;51.480;7.006;2024-03-08T12:37:43;17.55;;;14.23;;
14268;SDS011;7218;51.480;7.006;2024-03-08T12:40:10;15.63;;;13.18;;
14268;SDS011;7218;51.480;7.006;2024-03-08T12:42:41;14.88;;;13.38;;
14268;SDS011;7218;51.480;7.006;2024-03-08T12:45:08;16.88;;;13.48;;
14268;SDS011;7218;51.480;7.006;2024-03-08T12:47:35;14.95;;;13.00;;
14268;SDS011;7218;51.480;7.006;2024-03-08T12:50:03;14.40;;;12.60;;
14268;SDS011;7218;51.480;7.006;2024-03-08T12:52:30;14.50;;;12.63;;
14268;SDS011;7218;51.480;7.006;2024-03-08T12:54:56;12.75;;;11.48;;
14268;SDS011;7218;51.480;7.006;2024-03-08T12:57:27;11.60;;;10.40;;
14268;SDS011;7218;51.480;7.006;2024-03-08T12:59:54;11.40;;;10.20;;
14268;SDS011;7218;51.480;7.006;2024-03-08T13:02:20;11.45;;;9.93;;
14268;SDS011;7218;51.480;7.006;2024-03-08T13:04:49;8.98;;;8.05;;
14268;SDS011;7218;51.480;7.006;2024-03-08T13:07:21;10.13;;;6.78;;
14268;SDS011;7218;51.480;7.006;2024-03-08T13:09:49;8.52;;;7.10;;
14268;SDS011;7218;51.480;7.006;2024-03-08T13:12:15;8.27;;;7.25;;
14268;SDS011;7218;51.480;7.006;2024-03-08T13:14:42;7.60;;;6.75;;
14268;SDS011;7218;51.480;7.006;2024-03-08T13:17:08;6.88;;;6.05;;
14268;SDS011;7218;51.480;7.006;2024-03-08T13:19:36;6.57;;;5.97;;
14268;SDS011;7218;51.480;7.006;2024-03-08T13:22:03;8.88;;;6.75;;
14268;SDS011;7218;51.480;7.006;2024-03-08T13:24:32;7.15;;;6.45;;
14268;SDS011;7218;51.480;7.006;2024-03-08T13:26:58;7.32;;;6.10;;
14268;SDS011;7218;51.480;7.006;2024-03-08T13:29:25;7.40;;;6.53;;
14268;SDS011;7218;51.480;7.006;2024-03-08T13:31:52;7.32;;;6.50;;
14268;SDS011;7218;51.480;7.006;2024-03-08T13:34:20;8.45;;;6.50;;
14268;SDS011;7218;51.480;7.006;2024-03-08T13:36:52;7.03;;;6.32;;
14268;SDS011;7218;51.480;7.006;2024-03-08T13:39:24;6.75;;;6.15;;
14268;SDS011;7218;51.480;7.006;2024-03-08T13:41:52;7.97;;;6.72;;
14268;SDS011;7218;51.480;7.006;2024-03-08T13:44:19;7.32;;;6.35;;
14268;SDS011;7218;51.480;7.006;2024-03-08T13:46:46;6.80;;;6.10;;
14268;SDS011;7218;51.480;7.006;2024-03-08T13:49:16;6.90;;;6.13;;
14268;SDS011;7218;51.480;7.006;2024-03-08T13:51:42;7.10;;;6.40;;
14268;SDS011;7218;51.480;7.006;2024-03-08T13:54:10;9.05;;;6.32;;
14268;SDS011;7218;51.480;7.006;2024-03-08T13:56:36;9.07;;;6.22;;
14268;SDS011;7218;51.480;7.006;2024-03-08T13:59:04;7.43;;;5.97;;
14268;SDS011;7218;51.480;7.006;2024-03-08T14:01:31;7.47;;;6.70;;
14268;SDS011;7218;51.480;7.006;2024-03-08T14:03:57;7.63;;;6.85;;
14268;SDS011;7218;51.480;7.006;2024-03-08T14:06:24;7.35;;;6.57;;
14268;SDS011;7218;51.480;7.006;2024-03-08T14:08:51;7.30;;;6.60;;
14268;SDS011;7218;51.480;7.006;2024-03-08T14:11:18;9.23;;;7.60;;
14268;SDS011;7218;51.480;7.006;2024-03-08T14:13:45;8.35;;;7.55;;
14268;SDS011;7218;51.480;7.006;2024-03-08T14:16:13;8.27;;;7.45;;
14268;SDS011;7218;51.480;7.006;2024-03-08T14:18:40;9.30;;;8.05;;
14268;SDS011;7218;51.480;7.006;2024-03-08T14:21:07;8.27;;;7.47;;
14268;SDS011;7218;51.480;7.006;2024-03-08T14:23:35;9.02;;;6.97;;
14268;SDS011;7218;51.480;7.006;2024-03-08T14:26:02;7.15;;;6.50;;
14268;SDS011;7218;51.480;7.006;2024-03-08T14:28:29;8.02;;;7.05;;
14268;SDS011;7218;51.480;7.006;2024-03-08T14:30:57;9.20;;;8.18;;
14268;SDS011;7218;51.480;7.006;2024-03-08T14:33:26;10.10;;;9.00;;
14268;SDS011;7218;51.480;7.006;2024-03-08T14:35:53;10.10;;;8.02;;
14268;SDS011;7218;51.480;7.006;2024-03-08T14:38:19;7.30;;;6.45;;
14268;SDS011;7218;51.480;7.006;2024-03-08T14:40:46;7.95;;;6.10;;